createdAt,value
2023-03-30T00:01:03.043Z,12.20
2023-03-30T00:03:29.915Z,12.30
2023-03-30T00:05:57.058Z,12.20
2023-03-30T00:08:28.387Z,12.20
2023-03-30T00:11:05.911Z,12.20
2023-03-30T00:13:33.975Z,12.10
2023-03-30T00:16:01.281Z,12.10
2023-03-30T00:18:29.843Z,12.10
2023-03-30T00:20:58.706Z,12.10
2023-03-30T00:23:26.064Z,12.20
2023-03-30T00:25:52.793Z,12.10
2023-03-30T00:28:19.395Z,12.10
2023-03-30T00:30:46.999Z,12.20
2023-03-30T00:33:13.587Z,12.10
2023-03-30T00:35:40.921Z,12.10
2023-03-30T00:38:07.637Z,12.10
2023-03-30T00:40:35.026Z,12.10
2023-03-30T00:43:02.794Z,12.10
2023-03-30T00:45:38.811Z,12.00
2023-03-30T00:48:07.412Z,12.00
2023-03-30T00:50:43.158Z,12.10
2023-03-30T00:53:12.576Z,12.10
2023-03-30T00:55:40.223Z,12.10
2023-03-30T00:58:07.260Z,12.00
2023-03-30T01:00:34.248Z,12.10
2023-03-30T01:03:04.350Z,12.10
2023-03-30T01:05:31.367Z,12.10
2023-03-30T01:07:58.464Z,12.00
2023-03-30T01:10:25.494Z,12.10
2023-03-30T01:12:52.339Z,12.10
2023-03-30T01:15:19.289Z,12.00
2023-03-30T01:17:49.547Z,12.00
2023-03-30T01:20:31.389Z,12.00
2023-03-30T01:22:58.958Z,12.10
2023-03-30T01:25:26.189Z,12.10
2023-03-30T01:27:52.868Z,12.00
2023-03-30T01:30:22.323Z,12.10
2023-03-30T01:32:52.010Z,12.10
2023-03-30T01:35:27.911Z,12.00
2023-03-30T01:38:08.306Z,12.00
2023-03-30T01:40:45.566Z,11.90
2023-03-30T01:43:27.871Z,11.90
2023-03-30T01:46:01.169Z,11.90
2023-03-30T01:48:29.287Z,11.80
2023-03-30T01:50:59.543Z,11.90
2023-03-30T01:53:35.679Z,11.90
2023-03-30T01:56:06.868Z,11.90
2023-03-30T01:58:59.970Z,11.80
2023-03-30T02:01:28.072Z,11.80
2023-03-30T02:03:57.910Z,11.80
2023-03-30T02:06:39.797Z,11.90
2023-03-30T02:09:08.124Z,11.90
2023-03-30T02:11:35.690Z,11.90
2023-03-30T02:14:03.366Z,11.90
2023-03-30T02:16:38.653Z,11.90
2023-03-30T02:19:06.372Z,11.90
2023-03-30T02:21:33.010Z,12.00
2023-03-30T02:24:00.716Z,11.90
2023-03-30T02:26:29.482Z,11.90
2023-03-30T02:28:56.192Z,11.90
2023-03-30T02:31:23.148Z,11.90
2023-03-30T02:34:00.169Z,11.80
2023-03-30T02:36:39.756Z,11.80
2023-03-30T02:39:06.356Z,11.80
2023-03-30T02:41:36.013Z,12.10
2023-03-30T02:44:12.526Z,11.70
2023-03-30T02:46:46.367Z,11.70
2023-03-30T02:49:21.064Z,11.70
2023-03-30T02:52:05.862Z,11.80
2023-03-30T02:54:38.239Z,11.80
2023-03-30T02:57:07.815Z,11.80
2023-03-30T02:59:37.384Z,11.80
2023-03-30T03:02:12.365Z,11.80
2023-03-30T03:04:43.433Z,11.80
2023-03-30T03:07:11.390Z,11.90
2023-03-30T03:09:38.040Z,11.90
2023-03-30T03:12:05.121Z,11.90
2023-03-30T03:14:31.722Z,11.90
2023-03-30T03:16:58.326Z,11.90
2023-03-30T03:19:24.919Z,11.80
2023-03-30T03:21:51.765Z,11.80
2023-03-30T03:24:18.959Z,11.90
2023-03-30T03:26:46.016Z,11.90
2023-03-30T03:29:12.570Z,11.90
2023-03-30T03:31:39.276Z,12.00
2023-03-30T03:34:06.738Z,12.10
2023-03-30T03:36:33.283Z,12.20
2023-03-30T03:38:59.927Z,12.20
2023-03-30T03:41:26.609Z,12.30
2023-03-30T03:43:53.199Z,12.30
2023-03-30T03:46:19.922Z,12.40
2023-03-30T03:48:46.505Z,12.50
2023-03-30T03:51:13.163Z,12.50
2023-03-30T03:53:39.761Z,12.50
2023-03-30T03:56:06.522Z,12.50
2023-03-30T03:58:33.100Z,12.60
2023-03-30T04:01:00.264Z,12.70
2023-03-30T04:03:27.353Z,12.70
2023-03-30T04:05:54.046Z,12.80
2023-03-30T04:08:21.179Z,12.80
2023-03-30T04:10:47.763Z,12.80
2023-03-30T04:13:14.346Z,12.80
2023-03-30T04:15:41.142Z,12.80
2023-03-30T04:18:09.087Z,12.90
2023-03-30T04:20:35.660Z,13.00
2023-03-30T04:23:02.743Z,13.10
2023-03-30T04:25:29.430Z,13.20
2023-03-30T04:27:56.688Z,13.20
2023-03-30T04:30:23.504Z,13.20
2023-03-30T04:33:05.370Z,13.20
2023-03-30T04:35:32.987Z,13.20
2023-03-30T04:38:00.458Z,13.20
2023-03-30T04:40:27.253Z,13.20
2023-03-30T04:42:54.598Z,13.20
2023-03-30T04:45:21.510Z,13.20
2023-03-30T04:47:48.220Z,13.20
2023-03-30T04:50:14.904Z,13.30
2023-03-30T04:52:41.520Z,13.20
2023-03-30T04:55:09.810Z,13.30
2023-03-30T04:57:36.421Z,13.30
2023-03-30T05:00:06.576Z,13.30
2023-03-30T05:02:33.578Z,13.20
2023-03-30T05:05:00.398Z,13.20
2023-03-30T05:07:27.113Z,13.20
2023-03-30T05:09:53.636Z,13.20
2023-03-30T05:12:20.431Z,13.10
2023-03-30T05:14:46.981Z,13.10
2023-03-30T05:17:13.695Z,13.10
2023-03-30T05:19:40.587Z,13.00
2023-03-30T05:22:07.168Z,13.00
2023-03-30T05:24:34.450Z,13.30
2023-03-30T05:27:02.244Z,13.00
2023-03-30T05:29:28.842Z,12.90
2023-03-30T05:31:55.427Z,13.00
2023-03-30T05:34:22.028Z,13.00
2023-03-30T05:36:48.739Z,13.00
2023-03-30T05:39:15.356Z,12.90
2023-03-30T05:41:41.910Z,12.90
2023-03-30T05:44:08.740Z,13.00
2023-03-30T05:46:35.642Z,13.00
2023-03-30T05:49:02.385Z,13.00
2023-03-30T05:51:28.959Z,12.90
2023-03-30T05:53:55.902Z,13.00
2023-03-30T05:56:23.450Z,12.90
2023-03-30T05:58:50.292Z,12.90
2023-03-30T06:01:17.027Z,12.90
2023-03-30T06:03:43.937Z,12.90
2023-03-30T06:06:10.971Z,12.90
2023-03-30T06:08:37.720Z,12.90
2023-03-30T06:11:04.599Z,12.90
2023-03-30T06:13:31.839Z,12.80
2023-03-30T06:15:59.686Z,12.90
2023-03-30T06:18:28.150Z,12.90
2023-03-30T06:20:54.734Z,12.90
2023-03-30T06:23:23.121Z,12.90
2023-03-30T06:25:53.060Z,12.90
2023-03-30T06:28:20.422Z,13.00
2023-03-30T06:30:49.250Z,12.90
2023-03-30T06:33:16.534Z,12.90
2023-03-30T06:35:50.556Z,12.90
2023-03-30T06:38:17.707Z,12.90
2023-03-30T06:40:44.445Z,12.90
2023-03-30T06:43:15.127Z,12.90
2023-03-30T06:45:42.068Z,12.90
2023-03-30T06:48:08.946Z,12.90
2023-03-30T06:50:36.686Z,12.80
2023-03-30T06:53:04.469Z,12.80
2023-03-30T06:55:31.809Z,12.70
2023-03-30T06:57:58.548Z,12.70
2023-03-30T07:00:25.209Z,12.70
2023-03-30T07:02:51.841Z,12.70
2023-03-30T07:05:18.560Z,12.60
2023-03-30T07:07:45.302Z,12.60
2023-03-30T07:10:12.330Z,12.60
2023-03-30T07:12:40.857Z,12.60
2023-03-30T07:15:08.031Z,12.60
2023-03-30T07:17:34.996Z,12.60
2023-03-30T07:20:02.121Z,12.60
2023-03-30T07:22:28.721Z,12.70
2023-03-30T07:24:55.693Z,12.60
2023-03-30T07:27:25.385Z,12.60
2023-03-30T07:29:53.070Z,12.60
2023-03-30T07:32:19.966Z,12.70
2023-03-30T07:34:47.301Z,12.60
2023-03-30T07:37:20.362Z,12.60
2023-03-30T07:39:47.874Z,12.60
2023-03-30T07:42:14.648Z,12.70
2023-03-30T07:44:41.271Z,12.60
2023-03-30T07:47:07.989Z,12.60
2023-03-30T07:49:34.745Z,12.60
2023-03-30T07:52:01.451Z,12.70
2023-03-30T07:54:28.038Z,12.70
2023-03-30T07:56:54.652Z,12.70
2023-03-30T07:59:22.468Z,12.70
2023-03-30T08:01:54.337Z,12.70
2023-03-30T08:04:22.898Z,12.70
2023-03-30T08:06:52.863Z,12.90
2023-03-30T08:09:19.896Z,12.80
2023-03-30T08:11:46.571Z,12.70
2023-03-30T08:14:13.185Z,12.80
2023-03-30T08:16:39.868Z,12.80
2023-03-30T08:19:06.457Z,12.80
2023-03-30T08:21:33.024Z,12.90
2023-03-30T08:23:59.663Z,12.90
2023-03-30T08:26:26.457Z,12.90
2023-03-30T08:28:53.174Z,12.90
2023-03-30T08:31:21.069Z,12.90
2023-03-30T08:33:48.299Z,12.80
2023-03-30T08:36:15.245Z,12.80
2023-03-30T08:38:42.196Z,12.80
2023-03-30T08:41:43.743Z,12.80
2023-03-30T08:44:21.127Z,12.80
2023-03-30T08:46:49.116Z,12.80
2023-03-30T08:49:17.846Z,12.80
2023-03-30T08:51:44.945Z,12.90
2023-03-30T08:54:16.817Z,12.80
2023-03-30T08:56:47.837Z,12.80
2023-03-30T08:59:17.511Z,12.90
2023-03-30T09:01:44.080Z,12.90
2023-03-30T09:04:37.522Z,12.80
2023-03-30T09:07:09.155Z,12.80
2023-03-30T09:09:40.740Z,12.90
2023-03-30T09:12:19.585Z,12.90
2023-03-30T09:14:55.728Z,12.90
2023-03-30T09:17:32.373Z,12.90
2023-03-30T09:20:07.147Z,13.00
2023-03-30T09:22:41.792Z,13.10
2023-03-30T09:25:31.119Z,13.20
2023-03-30T09:28:06.314Z,13.30
2023-03-30T09:30:37.048Z,13.30
2023-03-30T09:33:13.732Z,13.30
2023-03-30T09:35:48.311Z,13.30
2023-03-30T09:38:14.885Z,13.30
2023-03-30T09:40:44.732Z,13.30
2023-03-30T09:43:11.275Z,13.30
2023-03-30T09:45:38.636Z,13.20
2023-03-30T09:48:07.481Z,13.30
2023-03-30T09:50:52.131Z,13.20
2023-03-30T09:53:18.839Z,13.20
2023-03-30T09:55:59.652Z,13.20
2023-03-30T09:58:27.994Z,13.30
2023-03-30T10:01:05.033Z,13.30
2023-03-30T10:03:32.622Z,13.40
2023-03-30T10:06:05.630Z,13.60
2023-03-30T10:08:33.530Z,13.70
2023-03-30T10:11:01.201Z,13.70
2023-03-30T10:13:32.507Z,13.60
2023-03-30T10:16:03.816Z,13.50
2023-03-30T10:18:41.069Z,13.60
2023-03-30T10:21:13.855Z,13.70
2023-03-30T10:23:42.506Z,13.80
2023-03-30T10:26:16.140Z,13.80
2023-03-30T10:28:56.757Z,13.90
2023-03-30T10:31:27.246Z,14.00
2023-03-30T10:33:59.495Z,14.00
2023-03-30T10:36:30.973Z,15.20
2023-03-30T10:39:16.519Z,16.40
2023-03-30T10:41:43.352Z,16.60
2023-03-30T10:44:16.831Z,16.40
2023-03-30T10:46:43.515Z,16.00
2023-03-30T10:49:20.338Z,15.80
2023-03-30T10:51:55.385Z,15.80
2023-03-30T10:54:33.823Z,15.80
2023-03-30T10:57:17.651Z,15.80
2023-03-30T10:59:44.270Z,15.70
2023-03-30T11:02:29.837Z,15.70
2023-03-30T11:05:06.017Z,15.70
2023-03-30T11:07:35.776Z,15.80
2023-03-30T11:10:11.431Z,15.80
2023-03-30T11:12:42.958Z,15.90
2023-03-30T11:15:13.679Z,16.00
2023-03-30T11:17:54.336Z,16.00
2023-03-30T11:20:27.338Z,15.90
2023-03-30T11:23:06.246Z,15.90
2023-03-30T11:25:52.364Z,15.90
2023-03-30T11:28:24.486Z,15.90
2023-03-30T11:30:54.546Z,16.00
2023-03-30T11:33:27.044Z,16.20
2023-03-30T11:35:55.597Z,16.40
2023-03-30T11:38:41.460Z,16.50
2023-03-30T11:41:20.245Z,16.40
2023-03-30T11:43:47.081Z,16.20
2023-03-30T11:46:13.818Z,16.20
2023-03-30T11:48:55.927Z,16.30
2023-03-30T11:51:41.475Z,16.40
2023-03-30T11:54:27.204Z,16.40
2023-03-30T11:57:13.340Z,16.40
2023-03-30T11:59:49.155Z,16.20
2023-03-30T12:02:24.657Z,16.10
2023-03-30T12:05:11.584Z,16.10
2023-03-30T12:07:38.154Z,16.10
2023-03-30T12:10:08.405Z,16.10
2023-03-30T12:12:39.064Z,16.10
2023-03-30T12:15:05.760Z,16.10
2023-03-30T12:17:44.672Z,16.30
2023-03-30T12:20:33.146Z,16.40
2023-03-30T12:22:59.653Z,16.40
2023-03-30T12:25:32.915Z,16.40
2023-03-30T12:28:03.032Z,16.40
2023-03-30T12:30:30.812Z,16.60
2023-03-30T12:33:02.067Z,16.70
2023-03-30T12:35:47.406Z,17.00
2023-03-30T12:38:17.681Z,17.10
2023-03-30T12:40:49.086Z,17.10
2023-03-30T12:43:34.269Z,17.30
2023-03-30T12:46:08.565Z,17.60
2023-03-30T12:48:49.063Z,18.50
2023-03-30T12:51:31.892Z,19.90
2023-03-30T12:54:08.317Z,20.70
2023-03-30T12:56:42.613Z,21.00
2023-03-30T12:59:18.953Z,20.80
2023-03-30T13:01:50.721Z,20.50
2023-03-30T13:04:25.310Z,20.00
2023-03-30T13:06:54.251Z,19.80
2023-03-30T13:09:23.472Z,19.50
2023-03-30T13:11:53.342Z,19.10
2023-03-30T13:14:35.265Z,19.10
2023-03-30T13:17:01.962Z,19.00
2023-03-30T13:19:28.706Z,18.90
2023-03-30T13:22:18.503Z,18.80
2023-03-30T13:24:46.901Z,18.70
2023-03-30T13:27:13.480Z,18.70
2023-03-30T13:29:40.666Z,18.50
2023-03-30T13:32:18.161Z,18.50
2023-03-30T13:34:58.489Z,18.30
2023-03-30T13:37:41.789Z,18.30
2023-03-30T13:40:09.221Z,18.60
2023-03-30T13:42:45.928Z,19.20
2023-03-30T13:45:33.167Z,19.70
2023-03-30T13:48:02.893Z,20.10
2023-03-30T13:50:31.260Z,20.20
2023-03-30T13:53:00.025Z,20.10
2023-03-30T13:55:37.650Z,19.80
2023-03-30T13:58:06.312Z,19.50
2023-03-30T14:00:33.289Z,19.20
2023-03-30T14:03:15.866Z,19.10
2023-03-30T14:05:42.749Z,19.20
2023-03-30T14:08:10.349Z,19.40
2023-03-30T14:10:37.030Z,19.80
2023-03-30T14:13:04.574Z,19.80
2023-03-30T14:15:35.836Z,19.70
2023-03-30T14:18:03.121Z,19.60
2023-03-30T14:20:45.672Z,19.60
2023-03-30T14:23:24.444Z,19.80
2023-03-30T14:25:57.489Z,20.40
2023-03-30T14:28:26.705Z,20.60
2023-03-30T14:30:57.744Z,20.70
2023-03-30T14:33:25.253Z,20.80
2023-03-30T14:35:53.625Z,20.80
2023-03-30T14:38:22.028Z,20.50
2023-03-30T14:40:49.206Z,20.40
2023-03-30T14:43:16.758Z,20.10
2023-03-30T14:45:43.835Z,19.80
2023-03-30T14:48:16.460Z,19.60
2023-03-30T14:50:43.879Z,19.50
2023-03-30T14:53:10.638Z,19.40
2023-03-30T14:55:38.072Z,19.40
2023-03-30T14:58:05.094Z,19.20
2023-03-30T15:00:31.906Z,19.10
2023-03-30T15:03:00.497Z,18.90
2023-03-30T15:05:29.686Z,18.70
2023-03-30T15:07:56.241Z,18.50
2023-03-30T15:10:25.211Z,18.30
2023-03-30T15:12:54.325Z,18.10
2023-03-30T15:15:24.180Z,18.00
2023-03-30T15:17:51.118Z,17.90
2023-03-30T15:20:18.527Z,17.70
2023-03-30T15:22:46.654Z,17.60
2023-03-30T15:25:15.124Z,17.50
2023-03-30T15:27:43.278Z,17.30
2023-03-30T15:30:19.439Z,17.10
2023-03-30T15:32:46.071Z,17.00
2023-03-30T15:35:15.954Z,16.90
2023-03-30T15:37:56.320Z,17.00
2023-03-30T15:40:27.608Z,16.90
2023-03-30T15:43:13.149Z,17.00
2023-03-30T15:45:40.418Z,17.00
2023-03-30T15:48:09.906Z,17.10
2023-03-30T15:50:37.145Z,17.00
2023-03-30T15:53:03.987Z,16.90
2023-03-30T15:55:31.841Z,16.90
2023-03-30T15:57:59.391Z,16.90
2023-03-30T16:00:31.020Z,16.90
2023-03-30T16:02:58.666Z,16.80
2023-03-30T16:05:27.300Z,16.90
2023-03-30T16:07:54.431Z,17.00
2023-03-30T16:10:24.481Z,17.10
2023-03-30T16:12:52.136Z,17.20
2023-03-30T16:15:20.314Z,17.20
2023-03-30T16:17:47.329Z,17.40
2023-03-30T16:20:17.029Z,17.50
2023-03-30T16:22:43.970Z,17.60
2023-03-30T16:25:10.552Z,17.60
2023-03-30T16:27:37.176Z,17.60
2023-03-30T16:30:13.241Z,17.60
2023-03-30T16:32:39.836Z,17.40
2023-03-30T16:35:06.688Z,17.30
2023-03-30T16:37:33.329Z,17.20
2023-03-30T16:39:59.850Z,17.10
2023-03-30T16:42:29.529Z,17.00
2023-03-30T16:44:56.375Z,16.80
2023-03-30T16:47:23.153Z,16.70
2023-03-30T16:49:49.738Z,16.60
2023-03-30T16:52:16.483Z,16.40
2023-03-30T16:54:43.053Z,16.30
2023-03-30T16:57:10.126Z,16.20
2023-03-30T16:59:36.862Z,16.00
2023-03-30T17:02:03.844Z,15.90
2023-03-30T17:04:30.481Z,15.90
2023-03-30T17:06:57.162Z,15.70
2023-03-30T17:09:23.834Z,15.60
2023-03-30T17:11:50.748Z,15.60
2023-03-30T17:14:17.516Z,15.50
2023-03-30T17:16:44.120Z,15.40
2023-03-30T17:19:12.310Z,15.30
2023-03-30T17:21:40.263Z,15.20
2023-03-30T17:24:06.986Z,15.20
2023-03-30T17:26:33.599Z,15.20
2023-03-30T17:29:00.186Z,15.30
2023-03-30T17:31:26.986Z,15.30
2023-03-30T17:33:53.654Z,15.30
2023-03-30T17:36:24.052Z,15.30
2023-03-30T17:38:51.330Z,15.30
2023-03-30T17:41:19.407Z,15.20
2023-03-30T17:43:47.750Z,15.20
2023-03-30T17:46:16.399Z,15.20
2023-03-30T17:48:43.106Z,15.00
2023-03-30T17:51:09.750Z,14.90
2023-03-30T17:53:36.966Z,14.90
2023-03-30T17:56:03.628Z,14.80
2023-03-30T17:58:34.084Z,14.70
2023-03-30T18:01:01.969Z,14.60
2023-03-30T18:03:31.611Z,14.50
2023-03-30T18:05:59.156Z,14.40
2023-03-30T18:08:26.583Z,14.30
2023-03-30T18:10:53.926Z,14.30
2023-03-30T18:13:21.159Z,14.20
2023-03-30T18:15:49.678Z,14.10
2023-03-30T18:18:22.960Z,14.10
2023-03-30T18:20:51.422Z,14.00
2023-03-30T18:23:18.128Z,14.00
2023-03-30T18:25:44.845Z,13.90
2023-03-30T18:28:16.584Z,13.80
2023-03-30T18:30:43.274Z,13.80
2023-03-30T18:33:09.918Z,13.70
2023-03-30T18:35:37.167Z,13.70
2023-03-30T18:38:04.372Z,13.60
2023-03-30T18:40:33.068Z,13.50
2023-03-30T18:43:00.012Z,13.50
2023-03-30T18:45:34.173Z,13.40
2023-03-30T18:48:01.787Z,13.40
2023-03-30T18:50:31.492Z,13.30
2023-03-30T18:52:58.498Z,13.30
2023-03-30T18:55:25.650Z,13.20
2023-03-30T18:57:52.610Z,13.20
2023-03-30T19:00:24.084Z,13.20
2023-03-30T19:02:50.998Z,13.10
2023-03-30T19:05:18.876Z,13.00
2023-03-30T19:07:45.792Z,13.00
2023-03-30T19:10:13.905Z,12.90
2023-03-30T19:12:40.467Z,12.90
2023-03-30T19:15:07.868Z,12.80
2023-03-30T19:17:34.452Z,12.80
2023-03-30T19:20:01.150Z,12.80
2023-03-30T19:22:27.773Z,12.80
2023-03-30T19:24:54.368Z,12.70
2023-03-30T19:27:21.007Z,12.60
2023-03-30T19:29:47.568Z,12.60
2023-03-30T19:32:14.192Z,12.60
2023-03-30T19:34:40.841Z,12.50
2023-03-30T19:37:07.942Z,12.50
2023-03-30T19:39:34.615Z,12.50
2023-03-30T19:42:01.238Z,12.40
2023-03-30T19:44:27.813Z,12.40
2023-03-30T19:46:54.433Z,12.40
2023-03-30T19:49:21.018Z,12.40
2023-03-30T19:51:47.910Z,12.50
2023-03-30T19:54:14.533Z,12.30
2023-03-30T19:56:41.141Z,12.30
2023-03-30T19:59:08.053Z,12.30
2023-03-30T20:01:34.921Z,12.30
2023-03-30T20:04:01.871Z,12.30
2023-03-30T20:06:28.704Z,12.30
2023-03-30T20:08:55.312Z,12.30
2023-03-30T20:11:22.339Z,12.30
2023-03-30T20:13:49.455Z,12.30
2023-03-30T20:16:21.137Z,12.30
2023-03-30T20:18:50.594Z,12.30
2023-03-30T20:21:18.221Z,12.30
2023-03-30T20:23:45.234Z,12.30
2023-03-30T20:26:11.967Z,12.30
2023-03-30T20:28:38.592Z,12.30
2023-03-30T20:31:05.863Z,12.30
2023-03-30T20:33:32.931Z,12.30
2023-03-30T20:35:59.944Z,11.90
2023-03-30T20:38:26.567Z,12.30
2023-03-30T20:40:54.757Z,12.30
2023-03-30T20:43:25.858Z,12.20
2023-03-30T20:46:09.384Z,12.10
2023-03-30T20:48:42.139Z,12.10
2023-03-30T20:51:13.660Z,12.10
2023-03-30T20:53:41.827Z,12.00
2023-03-30T20:56:12.034Z,12.00
2023-03-30T20:58:39.347Z,11.90
2023-03-30T21:01:15.269Z,11.90
2023-03-30T21:03:44.028Z,11.80
2023-03-30T21:06:12.436Z,11.80
2023-03-30T21:08:39.009Z,11.80
2023-03-30T21:11:07.104Z,11.70
2023-03-30T21:13:34.508Z,11.70
2023-03-30T21:16:03.178Z,11.60
2023-03-30T21:18:29.931Z,11.50
2023-03-30T21:20:56.583Z,11.50
2023-03-30T21:23:25.281Z,11.50
2023-03-30T21:25:59.528Z,11.40
2023-03-30T21:28:29.166Z,11.50
2023-03-30T21:30:56.890Z,11.40
2023-03-30T21:33:24.268Z,11.50
2023-03-30T21:35:51.826Z,11.40
2023-03-30T21:38:19.445Z,11.50
2023-03-30T21:41:07.292Z,11.50
2023-03-30T21:43:35.457Z,11.50
2023-03-30T21:46:04.508Z,11.40
2023-03-30T21:48:32.318Z,11.40
2023-03-30T21:51:03.225Z,11.50
2023-03-30T21:53:30.237Z,11.40
2023-03-30T21:55:56.839Z,11.40
2023-03-30T21:58:23.685Z,11.40
2023-03-30T22:00:58.376Z,11.30
2023-03-30T22:03:35.797Z,11.40
2023-03-30T22:06:03.808Z,11.40
2023-03-30T22:08:30.563Z,11.40
2023-03-30T22:10:57.403Z,11.30
2023-03-30T22:13:24.055Z,11.30
2023-03-30T22:16:01.083Z,11.30
2023-03-30T22:18:28.131Z,11.30
2023-03-30T22:20:58.038Z,11.20
2023-03-30T22:23:24.762Z,11.20
2023-03-30T22:25:51.714Z,11.20
2023-03-30T22:28:18.320Z,11.20
2023-03-30T22:30:44.920Z,11.10
2023-03-30T22:33:12.063Z,11.20
2023-03-30T22:35:43.443Z,11.20
2023-03-30T22:38:10.918Z,11.10
2023-03-30T22:40:39.523Z,11.10
2023-03-30T22:43:06.255Z,11.10
2023-03-30T22:45:32.861Z,11.10
2023-03-30T22:47:59.583Z,11.10
2023-03-30T22:50:27.532Z,11.10
2023-03-30T22:52:54.972Z,11.10
2023-03-30T22:55:22.273Z,11.10
2023-03-30T22:57:51.437Z,11.10
2023-03-30T23:00:18.094Z,11.20
2023-03-30T23:02:45.211Z,11.10
2023-03-30T23:05:14.986Z,11.10
2023-03-30T23:07:43.973Z,11.10
2023-03-30T23:10:12.133Z,11.10
2023-03-30T23:12:38.655Z,11.00
2023-03-30T23:15:05.528Z,11.00
2023-03-30T23:17:32.297Z,11.00
2023-03-30T23:19:58.919Z,11.00
2023-03-30T23:22:26.620Z,11.00
2023-03-30T23:24:53.230Z,11.00
2023-03-30T23:27:19.946Z,11.00
2023-03-30T23:29:46.522Z,10.90
2023-03-30T23:32:13.117Z,10.90
2023-03-30T23:34:39.687Z,10.90
2023-03-30T23:37:06.270Z,10.90
2023-03-30T23:39:33.065Z,10.90
2023-03-30T23:41:59.765Z,10.90
2023-03-30T23:44:27.994Z,10.80
2023-03-30T23:46:54.672Z,10.80
2023-03-30T23:49:21.621Z,10.70
2023-03-30T23:51:48.212Z,10.70
2023-03-30T23:54:15.786Z,10.70
2023-03-30T23:56:43.142Z,10.70
2023-03-30T23:59:10.816Z,10.70
